createdAt,value
2023-04-15T00:00:20.932Z,14.60
2023-04-15T00:05:48.363Z,15.07
2023-04-15T00:11:16.159Z,11.13
2023-04-15T00:16:43.219Z,9.85
2023-04-15T00:22:10.120Z,11.93
2023-04-15T00:27:37.684Z,8.77
2023-04-15T00:33:05.371Z,13.15
2023-04-15T00:38:33.746Z,12.45
2023-04-15T00:44:02.685Z,9.48
2023-04-15T00:49:31.024Z,10.18
2023-04-15T00:54:59.072Z,9.10
2023-04-15T01:00:27.034Z,9.38
2023-04-15T01:05:58.654Z,10.80
2023-04-15T01:11:27.443Z,11.52
2023-04-15T01:16:55.599Z,12.98
2023-04-15T01:22:24.159Z,12.75
2023-04-15T01:27:51.566Z,14.18
2023-04-15T01:33:19.288Z,11.80
2023-04-15T01:38:48.057Z,12.07
2023-04-15T01:44:15.394Z,13.15
2023-04-15T01:49:42.588Z,13.18
2023-04-15T01:55:10.992Z,14.07
2023-04-15T02:00:39.746Z,13.02
2023-04-15T02:06:07.708Z,16.23
2023-04-15T02:11:37.747Z,14.98
2023-04-15T02:17:09.638Z,18.17
2023-04-15T02:22:37.418Z,17.67
2023-04-15T02:28:07.760Z,16.92
2023-04-15T02:33:37.259Z,18.63
2023-04-15T02:39:04.567Z,19.13
2023-04-15T02:44:32.659Z,18.25
2023-04-15T02:50:06.144Z,18.38
2023-04-15T02:55:33.829Z,17.30
2023-04-15T03:01:01.721Z,17.58
2023-04-15T03:06:29.857Z,15.13
2023-04-15T03:11:57.786Z,17.00
2023-04-15T03:17:25.960Z,17.00
2023-04-15T03:22:53.856Z,17.05
2023-04-15T03:28:24.027Z,17.00
2023-04-15T03:33:52.673Z,16.90
2023-04-15T03:39:19.997Z,12.38
2023-04-15T03:44:47.932Z,17.45
2023-04-15T03:50:15.897Z,10.38
2023-04-15T03:55:43.297Z,4.63
2023-04-15T04:01:10.892Z,4.35
2023-04-15T04:06:38.312Z,3.00
2023-04-15T04:12:05.885Z,4.72
2023-04-15T04:17:33.171Z,4.75
2023-04-15T04:23:01.077Z,4.43
2023-04-15T04:28:29.100Z,4.30
2023-04-15T04:33:56.618Z,4.32
2023-04-15T04:39:24.070Z,3.75
2023-04-15T04:44:51.767Z,4.40
2023-04-15T04:50:18.855Z,4.88
2023-04-15T04:55:45.965Z,4.25
2023-04-15T05:01:13.439Z,3.85
2023-04-15T05:06:40.996Z,5.50
2023-04-15T05:12:09.258Z,4.57
2023-04-15T05:17:36.763Z,3.10
2023-04-15T05:23:03.851Z,3.05
2023-04-15T05:28:31.280Z,2.72
2023-04-15T05:33:59.183Z,2.38
2023-04-15T05:39:27.713Z,2.17
2023-04-15T05:44:56.009Z,2.75
2023-04-15T05:50:23.066Z,1.88
2023-04-15T05:55:50.329Z,1.80
2023-04-15T06:01:18.485Z,1.20
2023-04-15T06:06:46.493Z,1.17
2023-04-15T06:12:14.729Z,1.20
2023-04-15T06:17:42.574Z,1.10
2023-04-15T06:23:10.710Z,1.02
2023-04-15T06:28:38.118Z,1.25
2023-04-15T06:34:07.747Z,1.00
2023-04-15T06:39:35.311Z,0.90
2023-04-15T06:45:02.407Z,1.50
2023-04-15T06:50:31.610Z,0.80
2023-04-15T06:55:59.135Z,1.27
2023-04-15T07:01:26.911Z,1.10
2023-04-15T07:06:55.849Z,1.08
2023-04-15T07:12:23.666Z,1.00
2023-04-15T07:17:51.651Z,0.80
2023-04-15T07:23:19.495Z,0.90
2023-04-15T07:28:47.729Z,0.60
2023-04-15T07:34:15.547Z,0.40
2023-04-15T07:39:43.997Z,0.65
2023-04-15T07:45:11.783Z,0.68
2023-04-15T07:50:39.980Z,0.75
2023-04-15T07:56:07.678Z,0.52
2023-04-15T08:01:39.233Z,0.50
2023-04-15T08:07:07.360Z,0.65
2023-04-15T08:12:35.961Z,0.60
2023-04-15T08:18:03.726Z,0.40
2023-04-15T08:23:32.968Z,0.60
2023-04-15T08:29:00.869Z,0.52
2023-04-15T08:34:28.449Z,0.73
2023-04-15T08:39:57.112Z,0.88
2023-04-15T08:45:25.279Z,0.77
2023-04-15T08:50:53.171Z,0.68
2023-04-15T08:56:25.808Z,0.68
2023-04-15T09:01:55.657Z,0.50
2023-04-15T09:07:24.045Z,0.40
2023-04-15T09:12:51.620Z,0.43
2023-04-15T09:18:32.583Z,0.63
2023-04-15T09:24:02.715Z,0.70
2023-04-15T09:29:30.808Z,0.60
2023-04-15T09:34:58.305Z,0.52
2023-04-15T09:40:41.384Z,0.50
2023-04-15T09:46:08.750Z,0.70
2023-04-15T09:51:36.915Z,0.40
2023-04-15T09:57:11.513Z,0.38
2023-04-15T10:02:42.615Z,0.40
2023-04-15T10:08:10.153Z,0.38
2023-04-15T10:13:39.205Z,0.43
2023-04-15T10:19:08.970Z,0.45
2023-04-15T10:24:39.201Z,0.40
2023-04-15T10:30:07.269Z,0.32
2023-04-15T10:35:35.641Z,0.40
2023-04-15T10:41:31.442Z,0.40
2023-04-15T10:46:59.349Z,0.50
2023-04-15T10:52:29.398Z,0.40
2023-04-15T10:58:01.756Z,0.60
2023-04-15T11:03:39.923Z,0.93
2023-04-15T11:09:09.948Z,0.60
2023-04-15T11:14:43.719Z,0.70
2023-04-15T11:20:16.569Z,0.70
2023-04-15T11:25:44.479Z,0.77
2023-04-15T11:31:18.368Z,0.80
2023-04-15T11:36:46.067Z,1.00
2023-04-15T11:42:19.260Z,0.85
2023-04-15T11:47:46.999Z,1.00
2023-04-15T11:53:14.817Z,0.65
2023-04-15T11:58:43.665Z,0.50
2023-04-15T12:04:22.530Z,0.50
2023-04-15T12:09:57.360Z,0.57
2023-04-15T12:15:25.261Z,0.77
2023-04-15T12:20:52.331Z,0.90
2023-04-15T12:26:31.675Z,0.70
2023-04-15T12:32:10.596Z,0.63
2023-04-15T12:37:38.544Z,0.60
2023-04-15T12:43:06.460Z,0.70
2023-04-15T12:48:35.027Z,0.80
2023-04-15T12:54:02.769Z,0.75
2023-04-15T12:59:30.508Z,0.70
2023-04-15T13:04:58.387Z,0.80
2023-04-15T13:10:26.350Z,0.70
2023-04-15T13:15:54.458Z,0.60
2023-04-15T13:21:22.313Z,0.70
2023-04-15T13:26:50.513Z,0.70
2023-04-15T13:32:18.476Z,0.80
2023-04-15T13:37:45.213Z,0.80
2023-04-15T13:43:12.582Z,0.90
2023-04-15T13:48:40.917Z,0.90
2023-04-15T13:54:08.579Z,1.08
2023-04-15T13:59:36.903Z,0.80
2023-04-15T14:05:04.592Z,0.75
2023-04-15T14:10:32.695Z,0.65
2023-04-15T14:16:00.494Z,0.80
2023-04-15T14:21:28.467Z,0.93
2023-04-15T14:26:57.103Z,0.55
2023-04-15T14:32:26.781Z,0.95
2023-04-15T14:37:55.929Z,0.63
2023-04-15T15:33:53.916Z,0.73
2023-04-15T15:39:24.090Z,0.70
2023-04-15T15:44:53.119Z,0.80
2023-04-15T15:50:21.226Z,0.77
2023-04-15T15:55:48.948Z,1.88
2023-04-15T16:01:17.706Z,1.42
2023-04-15T16:06:47.655Z,1.65
2023-04-15T16:12:15.376Z,1.45
2023-04-15T16:17:42.558Z,1.90
2023-04-15T16:23:14.230Z,1.92
2023-04-15T16:28:42.958Z,1.80
2023-04-15T16:34:12.340Z,1.40
2023-04-15T16:39:40.045Z,1.67
2023-04-15T16:45:08.236Z,1.70
2023-04-15T16:50:37.413Z,2.20
2023-04-15T16:56:04.874Z,1.80
2023-04-15T17:01:31.871Z,2.15
2023-04-15T17:06:58.822Z,2.03
2023-04-15T17:12:25.877Z,2.08
2023-04-15T17:17:52.849Z,2.38
2023-04-15T17:23:19.857Z,5.50
2023-04-15T17:28:46.910Z,3.67
2023-04-15T17:34:15.895Z,3.40
2023-04-15T17:39:44.586Z,3.20
2023-04-15T17:45:12.257Z,2.63
2023-04-15T17:50:40.438Z,2.78
2023-04-15T17:56:08.103Z,3.05
2023-04-15T18:01:35.254Z,4.32
2023-04-15T18:07:06.231Z,3.88
2023-04-15T18:12:34.155Z,4.38
2023-04-15T18:18:01.473Z,7.25
2023-04-15T18:23:28.833Z,7.18
2023-04-15T18:28:56.047Z,7.75
2023-04-15T18:34:22.913Z,9.05
2023-04-15T18:39:55.332Z,9.15
2023-04-15T18:45:24.540Z,10.60
2023-04-15T18:50:54.799Z,12.00
2023-04-15T18:56:22.116Z,11.70
2023-04-15T19:01:49.167Z,12.43
2023-04-15T19:07:17.234Z,12.60
2023-04-15T19:12:43.897Z,13.20
2023-04-15T19:18:10.986Z,13.85
2023-04-15T19:23:38.687Z,12.95
2023-04-15T19:29:06.687Z,12.90
2023-04-15T19:34:34.099Z,14.82
2023-04-15T19:40:01.218Z,14.05
2023-04-15T19:45:29.061Z,13.55
2023-04-15T19:50:57.502Z,14.35
2023-04-15T19:56:25.455Z,15.20
2023-04-15T20:01:53.403Z,15.23
2023-04-15T20:07:20.628Z,13.93
2023-04-15T20:12:52.139Z,15.07
2023-04-15T20:18:20.314Z,14.48
2023-04-15T20:23:47.474Z,15.05
2023-04-15T20:29:15.050Z,14.38
2023-04-15T20:34:42.554Z,14.70
2023-04-15T20:40:11.720Z,14.68
2023-04-15T20:45:39.708Z,14.15
2023-04-15T20:51:07.557Z,15.77
2023-04-15T20:56:34.732Z,16.38
2023-04-15T21:02:02.940Z,15.88
2023-04-15T21:07:30.391Z,15.70
2023-04-15T21:12:57.420Z,15.65
2023-04-15T21:18:24.696Z,15.52
2023-04-15T21:23:51.242Z,15.85
2023-04-15T21:29:18.710Z,17.63
2023-04-15T21:34:45.560Z,16.73
2023-04-15T21:40:13.606Z,19.35
2023-04-15T21:45:43.240Z,20.60
2023-04-15T21:51:31.846Z,17.73
2023-04-15T21:56:59.526Z,18.50
2023-04-15T22:02:28.053Z,18.17
2023-04-15T22:07:58.423Z,15.75
2023-04-15T22:13:25.745Z,16.45
2023-04-15T22:18:52.882Z,19.23
2023-04-15T22:24:32.107Z,16.52
2023-04-15T22:30:07.503Z,17.50
2023-04-15T22:35:36.411Z,21.45
2023-04-15T22:41:03.751Z,20.90
2023-04-15T22:46:30.811Z,21.85
2023-04-15T22:51:57.627Z,21.23
2023-04-15T22:57:25.096Z,21.70
2023-04-15T23:02:53.224Z,21.42
2023-04-15T23:08:20.932Z,19.95
2023-04-15T23:13:48.171Z,19.45
2023-04-15T23:19:16.107Z,20.88
2023-04-15T23:24:45.130Z,20.52
2023-04-15T23:30:12.870Z,23.63
2023-04-15T23:35:40.340Z,23.02
2023-04-15T23:41:09.131Z,22.55
2023-04-15T23:46:37.077Z,21.92
2023-04-15T23:52:05.324Z,24.80
2023-04-15T23:57:33.125Z,25.50
